Weather at General Edward Lawrence Logan International Airport

Public forecast

Using degrees Fahrenheit for public forecast. Weather courtesy of forecast.io.

Current aviation weather report (METAR) for General Edward Lawrence Logan International Airport

Retrieved 2020/10/21 08:54 UTC (31 minutes ago):

KBOS 210854Z 04004KT 1/2SM R04R/2400V3500FT -DZ FG VV003 14/13 A3030 RMK AO2 DZB49 SLP260 P0000 60000 T01390133 53000

Aviation forecast (TAF) for General Edward Lawrence Logan International Airport

Retrieved 2020/10/21 06:26 UTC (3 hours ago):

TAF KBOS 210520Z 2106/2212 05003KT 1/4SM FG VV002 FM210900 05007KT 1/2SM -DZ FG OVC003 FM211300 06005KT 1SM BR OVC005 FM211700 18003KT P6SM BKN010 FM220300 22011KT P6SM OVC025